sensor_id;sensor_type;location;lat;lon;timestamp;P1;durP1;ratioP1;P2;durP2;ratioP2
5465;SDS011;2755;50.728;7.108;2023-04-16T00:01:37;31.90;;;13.50;;
5465;SDS011;2755;50.728;7.108;2023-04-16T00:04:03;27.07;;;12.60;;
5465;SDS011;2755;50.728;7.108;2023-04-16T00:06:29;29.30;;;14.53;;
5465;SDS011;2755;50.728;7.108;2023-04-16T00:08:54;21.67;;;12.40;;
5465;SDS011;2755;50.728;7.108;2023-04-16T00:11:20;33.13;;;14.87;;
5465;SDS011;2755;50.728;7.108;2023-04-16T00:13:46;30.90;;;15.50;;
5465;SDS011;2755;50.728;7.108;2023-04-16T00:16:12;34.27;;;15.57;;
5465;SDS011;2755;50.728;7.108;2023-04-16T00:18:37;35.57;;;15.37;;
5465;SDS011;2755;50.728;7.108;2023-04-16T00:21:03;36.37;;;15.67;;
5465;SDS011;2755;50.728;7.108;2023-04-16T00:23:29;35.50;;;15.40;;
5465;SDS011;2755;50.728;7.108;2023-04-16T00:25:55;30.23;;;15.00;;
5465;SDS011;2755;50.728;7.108;2023-04-16T00:28:23;42.93;;;15.67;;
5465;SDS011;2755;50.728;7.108;2023-04-16T00:30:50;34.47;;;15.37;;
5465;SDS011;2755;50.728;7.108;2023-04-16T00:33:15;31.77;;;14.57;;
5465;SDS011;2755;50.728;7.108;2023-04-16T00:35:43;27.80;;;14.40;;
5465;SDS011;2755;50.728;7.108;2023-04-16T00:38:10;25.43;;;12.83;;
5465;SDS011;2755;50.728;7.108;2023-04-16T00:40:35;26.17;;;13.63;;
5465;SDS011;2755;50.728;7.108;2023-04-16T00:43:01;24.43;;;12.70;;
5465;SDS011;2755;50.728;7.108;2023-04-16T00:45:27;25.27;;;12.10;;
5465;SDS011;2755;50.728;7.108;2023-04-16T00:47:52;22.23;;;12.70;;
5465;SDS011;2755;50.728;7.108;2023-04-16T00:50:18;31.37;;;12.67;;
5465;SDS011;2755;50.728;7.108;2023-04-16T00:52:45;26.13;;;12.17;;
5465;SDS011;2755;50.728;7.108;2023-04-16T00:55:12;24.10;;;12.33;;
5465;SDS011;2755;50.728;7.108;2023-04-16T00:57:39;27.10;;;14.17;;
5465;SDS011;2755;50.728;7.108;2023-04-16T01:00:05;29.30;;;14.17;;
5465;SDS011;2755;50.728;7.108;2023-04-16T01:02:32;31.63;;;14.90;;
5465;SDS011;2755;50.728;7.108;2023-04-16T01:04:58;23.50;;;13.63;;
5465;SDS011;2755;50.728;7.108;2023-04-16T01:07:25;30.20;;;14.93;;
5465;SDS011;2755;50.728;7.108;2023-04-16T01:09:51;22.10;;;12.73;;
5465;SDS011;2755;50.728;7.108;2023-04-16T01:12:16;22.83;;;13.53;;
5465;SDS011;2755;50.728;7.108;2023-04-16T01:14:42;43.83;;;16.50;;
5465;SDS011;2755;50.728;7.108;2023-04-16T01:17:08;27.67;;;15.50;;
5465;SDS011;2755;50.728;7.108;2023-04-16T01:19:34;35.57;;;14.33;;
5465;SDS011;2755;50.728;7.108;2023-04-16T01:22:02;29.90;;;13.30;;
5465;SDS011;2755;50.728;7.108;2023-04-16T01:24:29;30.63;;;13.97;;
5465;SDS011;2755;50.728;7.108;2023-04-16T01:26:56;21.13;;;11.70;;
5465;SDS011;2755;50.728;7.108;2023-04-16T01:29:25;34.40;;;14.00;;
5465;SDS011;2755;50.728;7.108;2023-04-16T01:31:51;27.17;;;12.50;;
5465;SDS011;2755;50.728;7.108;2023-04-16T01:34:16;38.33;;;13.40;;
5465;SDS011;2755;50.728;7.108;2023-04-16T01:36:42;28.03;;;13.90;;
5465;SDS011;2755;50.728;7.108;2023-04-16T01:39:08;28.97;;;14.27;;
5465;SDS011;2755;50.728;7.108;2023-04-16T01:41:39;24.93;;;12.30;;
5465;SDS011;2755;50.728;7.108;2023-04-16T01:44:05;20.57;;;11.60;;
5465;SDS011;2755;50.728;7.108;2023-04-16T01:46:31;24.40;;;12.63;;
5465;SDS011;2755;50.728;7.108;2023-04-16T01:48:59;21.13;;;12.30;;
5465;SDS011;2755;50.728;7.108;2023-04-16T01:51:25;18.53;;;11.27;;
5465;SDS011;2755;50.728;7.108;2023-04-16T01:53:52;32.67;;;14.23;;
5465;SDS011;2755;50.728;7.108;2023-04-16T01:56:18;30.80;;;14.50;;
5465;SDS011;2755;50.728;7.108;2023-04-16T01:58:43;27.60;;;11.33;;
5465;SDS011;2755;50.728;7.108;2023-04-16T02:01:11;26.00;;;15.10;;
5465;SDS011;2755;50.728;7.108;2023-04-16T02:03:37;28.83;;;15.77;;
5465;SDS011;2755;50.728;7.108;2023-04-16T02:06:02;34.80;;;15.63;;
5465;SDS011;2755;50.728;7.108;2023-04-16T02:08:28;26.60;;;15.03;;
5465;SDS011;2755;50.728;7.108;2023-04-16T02:10:54;33.67;;;15.67;;
5465;SDS011;2755;50.728;7.108;2023-04-16T02:13:20;25.67;;;13.17;;
5465;SDS011;2755;50.728;7.108;2023-04-16T02:15:48;32.40;;;15.90;;
5465;SDS011;2755;50.728;7.108;2023-04-16T02:18:14;42.50;;;17.30;;
5465;SDS011;2755;50.728;7.108;2023-04-16T02:20:41;32.67;;;13.97;;
5465;SDS011;2755;50.728;7.108;2023-04-16T02:23:08;34.70;;;16.03;;
5465;SDS011;2755;50.728;7.108;2023-04-16T02:25:41;33.80;;;13.67;;
5465;SDS011;2755;50.728;7.108;2023-04-16T02:28:10;32.00;;;13.90;;
5465;SDS011;2755;50.728;7.108;2023-04-16T02:30:38;29.70;;;13.70;;
5465;SDS011;2755;50.728;7.108;2023-04-16T02:33:04;34.83;;;15.50;;
5465;SDS011;2755;50.728;7.108;2023-04-16T02:35:31;36.77;;;15.77;;
5465;SDS011;2755;50.728;7.108;2023-04-16T02:37:58;30.67;;;15.47;;
5465;SDS011;2755;50.728;7.108;2023-04-16T02:40:24;23.53;;;13.57;;
5465;SDS011;2755;50.728;7.108;2023-04-16T02:42:50;35.23;;;16.53;;
5465;SDS011;2755;50.728;7.108;2023-04-16T02:45:16;33.63;;;15.47;;
5465;SDS011;2755;50.728;7.108;2023-04-16T02:47:42;25.27;;;14.87;;
5465;SDS011;2755;50.728;7.108;2023-04-16T02:50:07;25.00;;;13.30;;
5465;SDS011;2755;50.728;7.108;2023-04-16T02:52:33;32.00;;;15.37;;
5465;SDS011;2755;50.728;7.108;2023-04-16T02:54:58;27.60;;;15.47;;
5465;SDS011;2755;50.728;7.108;2023-04-16T02:57:24;24.17;;;15.10;;
5465;SDS011;2755;50.728;7.108;2023-04-16T02:59:50;27.17;;;15.30;;
5465;SDS011;2755;50.728;7.108;2023-04-16T03:02:16;29.73;;;17.90;;
5465;SDS011;2755;50.728;7.108;2023-04-16T03:04:42;33.67;;;16.10;;
5465;SDS011;2755;50.728;7.108;2023-04-16T03:07:07;32.57;;;14.33;;
5465;SDS011;2755;50.728;7.108;2023-04-16T03:09:36;29.13;;;15.50;;
5465;SDS011;2755;50.728;7.108;2023-04-16T03:12:01;34.37;;;16.87;;
5465;SDS011;2755;50.728;7.108;2023-04-16T03:14:27;39.67;;;17.50;;
5465;SDS011;2755;50.728;7.108;2023-04-16T03:16:52;36.70;;;16.27;;
5465;SDS011;2755;50.728;7.108;2023-04-16T03:19:18;39.07;;;19.13;;
5465;SDS011;2755;50.728;7.108;2023-04-16T03:21:44;39.63;;;17.67;;
5465;SDS011;2755;50.728;7.108;2023-04-16T03:24:10;42.40;;;19.33;;
5465;SDS011;2755;50.728;7.108;2023-04-16T03:26:35;58.13;;;20.70;;
5465;SDS011;2755;50.728;7.108;2023-04-16T03:29:01;46.47;;;20.43;;
5465;SDS011;2755;50.728;7.108;2023-04-16T03:31:27;46.13;;;19.40;;
5465;SDS011;2755;50.728;7.108;2023-04-16T03:33:52;38.40;;;19.80;;
5465;SDS011;2755;50.728;7.108;2023-04-16T03:36:18;36.77;;;17.17;;
5465;SDS011;2755;50.728;7.108;2023-04-16T03:38:43;39.07;;;15.87;;
5465;SDS011;2755;50.728;7.108;2023-04-16T03:41:09;49.63;;;16.60;;
5465;SDS011;2755;50.728;7.108;2023-04-16T03:43:34;37.50;;;15.70;;
5465;SDS011;2755;50.728;7.108;2023-04-16T03:46:00;42.87;;;17.80;;
5465;SDS011;2755;50.728;7.108;2023-04-16T03:48:26;38.30;;;17.53;;
5465;SDS011;2755;50.728;7.108;2023-04-16T03:50:51;40.83;;;15.13;;
5465;SDS011;2755;50.728;7.108;2023-04-16T03:53:17;34.07;;;15.70;;
5465;SDS011;2755;50.728;7.108;2023-04-16T03:55:43;42.83;;;16.87;;
5465;SDS011;2755;50.728;7.108;2023-04-16T03:58:09;32.77;;;16.07;;
5465;SDS011;2755;50.728;7.108;2023-04-16T04:00:35;34.57;;;16.00;;
5465;SDS011;2755;50.728;7.108;2023-04-16T04:03:00;36.27;;;15.30;;
5465;SDS011;2755;50.728;7.108;2023-04-16T04:05:26;37.87;;;16.73;;
5465;SDS011;2755;50.728;7.108;2023-04-16T04:07:52;35.63;;;15.90;;
5465;SDS011;2755;50.728;7.108;2023-04-16T04:10:18;36.80;;;16.17;;
5465;SDS011;2755;50.728;7.108;2023-04-16T04:12:43;30.97;;;14.90;;
5465;SDS011;2755;50.728;7.108;2023-04-16T04:15:09;38.97;;;16.60;;
5465;SDS011;2755;50.728;7.108;2023-04-16T04:17:35;33.03;;;16.60;;
5465;SDS011;2755;50.728;7.108;2023-04-16T04:20:01;35.70;;;16.80;;
5465;SDS011;2755;50.728;7.108;2023-04-16T04:22:27;32.90;;;16.47;;
5465;SDS011;2755;50.728;7.108;2023-04-16T04:24:53;37.90;;;18.30;;
5465;SDS011;2755;50.728;7.108;2023-04-16T04:27:18;39.60;;;18.03;;
5465;SDS011;2755;50.728;7.108;2023-04-16T04:29:44;38.13;;;19.13;;
5465;SDS011;2755;50.728;7.108;2023-04-16T04:32:09;41.30;;;19.07;;
5465;SDS011;2755;50.728;7.108;2023-04-16T04:34:35;46.40;;;20.70;;
5465;SDS011;2755;50.728;7.108;2023-04-16T04:37:00;45.30;;;19.60;;
5465;SDS011;2755;50.728;7.108;2023-04-16T04:39:26;51.70;;;23.53;;
5465;SDS011;2755;50.728;7.108;2023-04-16T04:41:52;49.10;;;22.20;;
5465;SDS011;2755;50.728;7.108;2023-04-16T04:44:17;53.17;;;23.27;;
5465;SDS011;2755;50.728;7.108;2023-04-16T04:46:43;53.93;;;25.50;;
5465;SDS011;2755;50.728;7.108;2023-04-16T04:49:08;49.20;;;24.30;;
5465;SDS011;2755;50.728;7.108;2023-04-16T04:51:34;62.60;;;26.27;;
5465;SDS011;2755;50.728;7.108;2023-04-16T04:54:00;58.23;;;25.97;;
5465;SDS011;2755;50.728;7.108;2023-04-16T04:56:25;56.03;;;25.13;;
5465;SDS011;2755;50.728;7.108;2023-04-16T04:58:51;54.20;;;23.90;;
5465;SDS011;2755;50.728;7.108;2023-04-16T05:01:16;81.90;;;29.30;;
5465;SDS011;2755;50.728;7.108;2023-04-16T05:03:42;63.23;;;27.50;;
5465;SDS011;2755;50.728;7.108;2023-04-16T05:06:08;60.17;;;24.60;;
5465;SDS011;2755;50.728;7.108;2023-04-16T05:08:33;52.17;;;24.03;;
5465;SDS011;2755;50.728;7.108;2023-04-16T05:10:59;51.03;;;23.23;;
5465;SDS011;2755;50.728;7.108;2023-04-16T05:13:25;41.83;;;18.60;;
5465;SDS011;2755;50.728;7.108;2023-04-16T05:15:51;47.27;;;21.13;;
5465;SDS011;2755;50.728;7.108;2023-04-16T05:18:16;44.67;;;22.03;;
5465;SDS011;2755;50.728;7.108;2023-04-16T05:20:42;59.53;;;22.57;;
5465;SDS011;2755;50.728;7.108;2023-04-16T05:23:07;45.80;;;22.80;;
5465;SDS011;2755;50.728;7.108;2023-04-16T05:25:33;50.30;;;21.87;;
5465;SDS011;2755;50.728;7.108;2023-04-16T05:27:59;51.10;;;22.63;;
5465;SDS011;2755;50.728;7.108;2023-04-16T05:30:25;48.03;;;21.27;;
5465;SDS011;2755;50.728;7.108;2023-04-16T05:32:51;50.47;;;21.60;;
5465;SDS011;2755;50.728;7.108;2023-04-16T05:35:16;57.50;;;22.47;;
5465;SDS011;2755;50.728;7.108;2023-04-16T05:37:42;62.43;;;24.73;;
5465;SDS011;2755;50.728;7.108;2023-04-16T05:40:08;52.13;;;23.47;;
5465;SDS011;2755;50.728;7.108;2023-04-16T05:42:34;61.17;;;24.80;;
5465;SDS011;2755;50.728;7.108;2023-04-16T05:45:00;39.43;;;19.53;;
5465;SDS011;2755;50.728;7.108;2023-04-16T05:47:28;48.70;;;21.30;;
5465;SDS011;2755;50.728;7.108;2023-04-16T05:49:53;56.70;;;21.87;;
5465;SDS011;2755;50.728;7.108;2023-04-16T05:52:19;59.50;;;22.40;;
5465;SDS011;2755;50.728;7.108;2023-04-16T05:54:45;59.60;;;24.10;;
5465;SDS011;2755;50.728;7.108;2023-04-16T05:57:11;61.83;;;22.10;;
5465;SDS011;2755;50.728;7.108;2023-04-16T05:59:37;45.13;;;21.70;;
5465;SDS011;2755;50.728;7.108;2023-04-16T06:02:03;58.07;;;25.27;;
5465;SDS011;2755;50.728;7.108;2023-04-16T06:04:28;49.03;;;22.27;;
5465;SDS011;2755;50.728;7.108;2023-04-16T06:06:55;51.80;;;21.20;;
5465;SDS011;2755;50.728;7.108;2023-04-16T06:09:20;55.47;;;21.70;;
5465;SDS011;2755;50.728;7.108;2023-04-16T06:11:46;52.10;;;22.57;;
5465;SDS011;2755;50.728;7.108;2023-04-16T06:14:12;50.63;;;22.00;;
5465;SDS011;2755;50.728;7.108;2023-04-16T06:16:38;49.10;;;22.57;;
5465;SDS011;2755;50.728;7.108;2023-04-16T06:19:04;52.50;;;23.40;;
5465;SDS011;2755;50.728;7.108;2023-04-16T06:21:29;50.00;;;19.97;;
5465;SDS011;2755;50.728;7.108;2023-04-16T06:23:55;45.40;;;18.60;;
5465;SDS011;2755;50.728;7.108;2023-04-16T06:26:21;46.20;;;19.30;;
5465;SDS011;2755;50.728;7.108;2023-04-16T06:28:47;39.60;;;18.00;;
5465;SDS011;2755;50.728;7.108;2023-04-16T06:31:12;34.10;;;16.90;;
5465;SDS011;2755;50.728;7.108;2023-04-16T06:33:38;42.23;;;18.63;;
5465;SDS011;2755;50.728;7.108;2023-04-16T06:36:04;50.60;;;21.00;;
5465;SDS011;2755;50.728;7.108;2023-04-16T06:38:30;45.37;;;18.10;;
5465;SDS011;2755;50.728;7.108;2023-04-16T06:40:55;39.43;;;17.43;;
5465;SDS011;2755;50.728;7.108;2023-04-16T06:43:22;44.37;;;19.33;;
5465;SDS011;2755;50.728;7.108;2023-04-16T06:45:47;41.83;;;17.30;;
5465;SDS011;2755;50.728;7.108;2023-04-16T06:48:13;44.70;;;18.67;;
5465;SDS011;2755;50.728;7.108;2023-04-16T06:50:39;46.97;;;19.67;;
5465;SDS011;2755;50.728;7.108;2023-04-16T06:53:05;46.57;;;20.30;;
5465;SDS011;2755;50.728;7.108;2023-04-16T06:55:31;39.43;;;18.17;;
5465;SDS011;2755;50.728;7.108;2023-04-16T06:57:56;44.87;;;18.33;;
5465;SDS011;2755;50.728;7.108;2023-04-16T07:00:22;38.50;;;18.90;;
5465;SDS011;2755;50.728;7.108;2023-04-16T07:02:48;36.00;;;17.77;;
5465;SDS011;2755;50.728;7.108;2023-04-16T07:05:13;42.47;;;17.87;;
5465;SDS011;2755;50.728;7.108;2023-04-16T07:07:39;43.57;;;17.43;;
5465;SDS011;2755;50.728;7.108;2023-04-16T07:10:04;39.53;;;16.00;;
5465;SDS011;2755;50.728;7.108;2023-04-16T07:12:31;40.63;;;19.67;;
5465;SDS011;2755;50.728;7.108;2023-04-16T07:14:57;42.87;;;18.53;;
5465;SDS011;2755;50.728;7.108;2023-04-16T07:17:23;46.93;;;19.87;;
5465;SDS011;2755;50.728;7.108;2023-04-16T07:19:49;40.60;;;18.20;;
5465;SDS011;2755;50.728;7.108;2023-04-16T07:22:15;44.87;;;18.33;;
5465;SDS011;2755;50.728;7.108;2023-04-16T07:24:40;43.00;;;17.27;;
5465;SDS011;2755;50.728;7.108;2023-04-16T07:27:06;36.70;;;16.33;;
5465;SDS011;2755;50.728;7.108;2023-04-16T07:29:32;39.87;;;15.47;;
5465;SDS011;2755;50.728;7.108;2023-04-16T07:31:58;26.83;;;15.10;;
5465;SDS011;2755;50.728;7.108;2023-04-16T07:34:23;42.03;;;16.90;;
5465;SDS011;2755;50.728;7.108;2023-04-16T07:36:49;24.90;;;14.53;;
5465;SDS011;2755;50.728;7.108;2023-04-16T07:39:14;27.97;;;14.70;;
5465;SDS011;2755;50.728;7.108;2023-04-16T07:41:40;30.57;;;16.10;;
5465;SDS011;2755;50.728;7.108;2023-04-16T07:44:07;35.83;;;17.03;;
5465;SDS011;2755;50.728;7.108;2023-04-16T07:46:33;32.50;;;17.30;;
5465;SDS011;2755;50.728;7.108;2023-04-16T07:48:58;43.00;;;19.60;;
5465;SDS011;2755;50.728;7.108;2023-04-16T07:51:24;33.40;;;17.70;;
5465;SDS011;2755;50.728;7.108;2023-04-16T07:53:50;52.03;;;23.33;;
5465;SDS011;2755;50.728;7.108;2023-04-16T07:56:16;48.53;;;23.90;;
5465;SDS011;2755;50.728;7.108;2023-04-16T07:58:41;39.60;;;21.33;;
5465;SDS011;2755;50.728;7.108;2023-04-16T08:01:07;62.33;;;24.20;;
5465;SDS011;2755;50.728;7.108;2023-04-16T08:03:33;63.33;;;24.00;;
5465;SDS011;2755;50.728;7.108;2023-04-16T08:05:59;51.47;;;21.87;;
5465;SDS011;2755;50.728;7.108;2023-04-16T08:08:24;50.17;;;24.23;;
5465;SDS011;2755;50.728;7.108;2023-04-16T08:10:50;46.97;;;23.17;;
5465;SDS011;2755;50.728;7.108;2023-04-16T08:13:19;46.07;;;21.40;;
5465;SDS011;2755;50.728;7.108;2023-04-16T08:15:49;36.90;;;18.00;;
5465;SDS011;2755;50.728;7.108;2023-04-16T08:18:15;36.00;;;16.97;;
5465;SDS011;2755;50.728;7.108;2023-04-16T08:20:41;36.93;;;17.67;;
5465;SDS011;2755;50.728;7.108;2023-04-16T08:23:07;38.63;;;17.60;;
5465;SDS011;2755;50.728;7.108;2023-04-16T08:25:32;24.00;;;15.10;;
5465;SDS011;2755;50.728;7.108;2023-04-16T08:27:59;29.43;;;15.47;;
5465;SDS011;2755;50.728;7.108;2023-04-16T08:30:24;32.53;;;14.43;;
5465;SDS011;2755;50.728;7.108;2023-04-16T08:32:50;22.80;;;13.07;;
5465;SDS011;2755;50.728;7.108;2023-04-16T08:35:16;29.63;;;14.77;;
5465;SDS011;2755;50.728;7.108;2023-04-16T08:37:42;28.07;;;13.47;;
5465;SDS011;2755;50.728;7.108;2023-04-16T08:40:07;23.73;;;13.70;;
5465;SDS011;2755;50.728;7.108;2023-04-16T08:42:38;24.23;;;14.53;;
5465;SDS011;2755;50.728;7.108;2023-04-16T08:47:47;36.00;;;14.80;;
5465;SDS011;2755;50.728;7.108;2023-04-16T08:50:15;33.83;;;16.73;;
5465;SDS011;2755;50.728;7.108;2023-04-16T08:52:51;25.23;;;13.57;;
5465;SDS011;2755;50.728;7.108;2023-04-16T08:55:38;39.03;;;18.03;;
5465;SDS011;2755;50.728;7.108;2023-04-16T08:58:09;29.23;;;15.80;;
5465;SDS011;2755;50.728;7.108;2023-04-16T09:00:38;41.33;;;19.33;;
5465;SDS011;2755;50.728;7.108;2023-04-16T09:03:07;42.23;;;17.77;;
5465;SDS011;2755;50.728;7.108;2023-04-16T09:05:34;33.57;;;16.90;;
5465;SDS011;2755;50.728;7.108;2023-04-16T09:08:01;36.70;;;19.10;;
5465;SDS011;2755;50.728;7.108;2023-04-16T09:10:26;43.73;;;21.20;;
5465;SDS011;2755;50.728;7.108;2023-04-16T09:12:55;38.20;;;18.37;;
5465;SDS011;2755;50.728;7.108;2023-04-16T09:15:21;36.77;;;19.13;;
5465;SDS011;2755;50.728;7.108;2023-04-16T09:17:48;40.63;;;19.43;;
5465;SDS011;2755;50.728;7.108;2023-04-16T09:20:13;43.33;;;20.10;;
5465;SDS011;2755;50.728;7.108;2023-04-16T09:22:39;31.83;;;17.30;;
5465;SDS011;2755;50.728;7.108;2023-04-16T09:25:05;40.03;;;20.30;;
5465;SDS011;2755;50.728;7.108;2023-04-16T09:27:31;39.77;;;19.60;;
5465;SDS011;2755;50.728;7.108;2023-04-16T09:29:57;36.87;;;19.33;;
5465;SDS011;2755;50.728;7.108;2023-04-16T09:32:26;40.67;;;20.40;;
5465;SDS011;2755;50.728;7.108;2023-04-16T09:34:56;42.53;;;21.53;;
5465;SDS011;2755;50.728;7.108;2023-04-16T09:37:24;35.87;;;20.67;;
5465;SDS011;2755;50.728;7.108;2023-04-16T09:39:52;46.73;;;22.20;;
5465;SDS011;2755;50.728;7.108;2023-04-16T09:42:24;36.57;;;20.13;;
5465;SDS011;2755;50.728;7.108;2023-04-16T09:44:54;38.77;;;21.40;;
5465;SDS011;2755;50.728;7.108;2023-04-16T09:47:21;48.93;;;23.33;;
5465;SDS011;2755;50.728;7.108;2023-04-16T09:49:47;42.90;;;24.00;;
5465;SDS011;2755;50.728;7.108;2023-04-16T09:52:13;44.17;;;22.30;;
5465;SDS011;2755;50.728;7.108;2023-04-16T09:54:47;47.77;;;23.77;;
5465;SDS011;2755;50.728;7.108;2023-04-16T09:57:17;38.20;;;21.30;;
5465;SDS011;2755;50.728;7.108;2023-04-16T09:59:52;46.83;;;23.90;;
5465;SDS011;2755;50.728;7.108;2023-04-16T10:02:25;46.60;;;23.47;;
5465;SDS011;2755;50.728;7.108;2023-04-16T10:04:51;42.53;;;23.53;;
5465;SDS011;2755;50.728;7.108;2023-04-16T10:07:18;36.37;;;21.30;;
5465;SDS011;2755;50.728;7.108;2023-04-16T10:09:45;35.90;;;20.13;;
5465;SDS011;2755;50.728;7.108;2023-04-16T10:12:14;31.43;;;18.93;;
5465;SDS011;2755;50.728;7.108;2023-04-16T10:14:40;34.13;;;19.07;;
5465;SDS011;2755;50.728;7.108;2023-04-16T10:17:07;38.20;;;19.80;;
5465;SDS011;2755;50.728;7.108;2023-04-16T10:19:33;38.20;;;20.47;;
5465;SDS011;2755;50.728;7.108;2023-04-16T10:21:59;36.73;;;21.90;;
5465;SDS011;2755;50.728;7.108;2023-04-16T10:24:29;32.83;;;18.93;;
5465;SDS011;2755;50.728;7.108;2023-04-16T10:26:56;33.33;;;18.27;;
5465;SDS011;2755;50.728;7.108;2023-04-16T10:29:22;33.27;;;18.97;;
5465;SDS011;2755;50.728;7.108;2023-04-16T10:31:50;41.47;;;22.57;;
5465;SDS011;2755;50.728;7.108;2023-04-16T10:34:17;40.50;;;22.20;;
5465;SDS011;2755;50.728;7.108;2023-04-16T10:36:45;50.23;;;25.63;;
5465;SDS011;2755;50.728;7.108;2023-04-16T10:39:16;43.17;;;24.00;;
5465;SDS011;2755;50.728;7.108;2023-04-16T10:41:43;48.43;;;26.07;;
5465;SDS011;2755;50.728;7.108;2023-04-16T10:44:09;49.03;;;27.13;;
5465;SDS011;2755;50.728;7.108;2023-04-16T10:46:39;41.80;;;23.33;;
5465;SDS011;2755;50.728;7.108;2023-04-16T10:49:18;49.77;;;26.13;;
5465;SDS011;2755;50.728;7.108;2023-04-16T10:51:54;46.67;;;26.60;;
5465;SDS011;2755;50.728;7.108;2023-04-16T10:54:25;43.13;;;22.90;;
5465;SDS011;2755;50.728;7.108;2023-04-16T10:56:52;42.60;;;24.20;;
5465;SDS011;2755;50.728;7.108;2023-04-16T10:59:20;45.33;;;25.70;;
5465;SDS011;2755;50.728;7.108;2023-04-16T11:01:48;47.47;;;24.63;;
5465;SDS011;2755;50.728;7.108;2023-04-16T11:12:11;34.00;;;21.63;;
5465;SDS011;2755;50.728;7.108;2023-04-16T11:14:39;40.97;;;22.80;;
5465;SDS011;2755;50.728;7.108;2023-04-16T11:17:05;32.67;;;19.33;;
5465;SDS011;2755;50.728;7.108;2023-04-16T11:19:31;33.50;;;19.80;;
5465;SDS011;2755;50.728;7.108;2023-04-16T11:21:59;32.90;;;18.33;;
5465;SDS011;2755;50.728;7.108;2023-04-16T11:24:28;34.77;;;19.90;;
5465;SDS011;2755;50.728;7.108;2023-04-16T11:26:56;33.43;;;19.60;;
5465;SDS011;2755;50.728;7.108;2023-04-16T11:29:22;29.67;;;18.40;;
5465;SDS011;2755;50.728;7.108;2023-04-16T11:31:51;27.93;;;18.40;;
5465;SDS011;2755;50.728;7.108;2023-04-16T11:34:17;29.33;;;18.70;;
5465;SDS011;2755;50.728;7.108;2023-04-16T11:36:47;28.57;;;18.10;;
5465;SDS011;2755;50.728;7.108;2023-04-16T11:39:14;31.57;;;18.00;;
5465;SDS011;2755;50.728;7.108;2023-04-16T11:41:47;25.67;;;16.37;;
5465;SDS011;2755;50.728;7.108;2023-04-16T11:46:42;30.50;;;16.67;;
5465;SDS011;2755;50.728;7.108;2023-04-16T11:49:07;26.40;;;17.33;;
5465;SDS011;2755;50.728;7.108;2023-04-16T11:51:38;30.13;;;17.70;;
5465;SDS011;2755;50.728;7.108;2023-04-16T11:54:20;35.53;;;19.83;;
5465;SDS011;2755;50.728;7.108;2023-04-16T11:56:47;31.30;;;19.00;;
5465;SDS011;2755;50.728;7.108;2023-04-16T12:01:47;39.73;;;21.10;;
5465;SDS011;2755;50.728;7.108;2023-04-16T12:04:13;42.03;;;21.47;;
5465;SDS011;2755;50.728;7.108;2023-04-16T12:06:40;32.10;;;19.97;;
5465;SDS011;2755;50.728;7.108;2023-04-16T12:09:24;35.73;;;20.80;;
5465;SDS011;2755;50.728;7.108;2023-04-16T12:11:51;33.27;;;19.30;;
5465;SDS011;2755;50.728;7.108;2023-04-16T12:14:17;31.60;;;19.60;;
5465;SDS011;2755;50.728;7.108;2023-04-16T12:16:43;33.97;;;18.67;;
5465;SDS011;2755;50.728;7.108;2023-04-16T12:19:09;32.97;;;20.10;;
5465;SDS011;2755;50.728;7.108;2023-04-16T12:21:37;31.37;;;19.37;;
5465;SDS011;2755;50.728;7.108;2023-04-16T12:24:13;31.60;;;19.27;;
5465;SDS011;2755;50.728;7.108;2023-04-16T12:26:50;31.60;;;19.13;;
5465;SDS011;2755;50.728;7.108;2023-04-16T12:29:24;30.80;;;17.27;;
5465;SDS011;2755;50.728;7.108;2023-04-16T12:31:51;32.30;;;18.50;;
5465;SDS011;2755;50.728;7.108;2023-04-16T12:34:18;43.03;;;20.10;;
5465;SDS011;2755;50.728;7.108;2023-04-16T12:36:45;30.33;;;18.20;;
5465;SDS011;2755;50.728;7.108;2023-04-16T12:39:12;35.00;;;17.90;;
5465;SDS011;2755;50.728;7.108;2023-04-16T12:41:40;29.07;;;16.97;;
5465;SDS011;2755;50.728;7.108;2023-04-16T12:44:15;29.77;;;19.60;;
5465;SDS011;2755;50.728;7.108;2023-04-16T12:46:42;39.17;;;21.97;;
5465;SDS011;2755;50.728;7.108;2023-04-16T12:49:08;33.17;;;18.77;;
5465;SDS011;2755;50.728;7.108;2023-04-16T12:51:35;32.87;;;20.00;;
5465;SDS011;2755;50.728;7.108;2023-04-16T12:54:02;30.77;;;18.40;;
5465;SDS011;2755;50.728;7.108;2023-04-16T12:56:28;32.33;;;19.67;;
5465;SDS011;2755;50.728;7.108;2023-04-16T12:58:54;28.53;;;18.13;;
5465;SDS011;2755;50.728;7.108;2023-04-16T13:01:20;30.20;;;17.50;;
5465;SDS011;2755;50.728;7.108;2023-04-16T13:03:47;23.87;;;15.60;;
5465;SDS011;2755;50.728;7.108;2023-04-16T13:06:13;33.10;;;18.70;;
5465;SDS011;2755;50.728;7.108;2023-04-16T13:08:39;28.67;;;16.33;;
5465;SDS011;2755;50.728;7.108;2023-04-16T13:11:06;31.90;;;17.03;;
5465;SDS011;2755;50.728;7.108;2023-04-16T13:13:32;27.17;;;17.23;;
5465;SDS011;2755;50.728;7.108;2023-04-16T13:15:58;30.40;;;17.97;;
5465;SDS011;2755;50.728;7.108;2023-04-16T13:18:24;30.03;;;17.90;;
5465;SDS011;2755;50.728;7.108;2023-04-16T13:20:51;26.13;;;16.10;;
5465;SDS011;2755;50.728;7.108;2023-04-16T13:23:17;27.90;;;15.70;;
5465;SDS011;2755;50.728;7.108;2023-04-16T13:25:43;23.10;;;15.03;;
5465;SDS011;2755;50.728;7.108;2023-04-16T13:28:09;24.93;;;16.33;;
5465;SDS011;2755;50.728;7.108;2023-04-16T13:30:35;25.00;;;16.50;;
5465;SDS011;2755;50.728;7.108;2023-04-16T13:33:00;28.83;;;19.10;;
5465;SDS011;2755;50.728;7.108;2023-04-16T13:35:27;26.83;;;16.53;;
5465;SDS011;2755;50.728;7.108;2023-04-16T13:37:53;24.07;;;16.10;;
5465;SDS011;2755;50.728;7.108;2023-04-16T13:40:19;31.73;;;18.00;;
5465;SDS011;2755;50.728;7.108;2023-04-16T13:42:45;25.20;;;16.60;;
5465;SDS011;2755;50.728;7.108;2023-04-16T13:45:10;21.97;;;14.63;;
5465;SDS011;2755;50.728;7.108;2023-04-16T13:47:38;22.30;;;14.80;;
5465;SDS011;2755;50.728;7.108;2023-04-16T13:50:06;24.20;;;13.13;;
5465;SDS011;2755;50.728;7.108;2023-04-16T13:52:32;20.63;;;14.40;;
5465;SDS011;2755;50.728;7.108;2023-04-16T13:54:58;24.90;;;14.43;;
5465;SDS011;2755;50.728;7.108;2023-04-16T13:57:23;19.33;;;13.30;;
5465;SDS011;2755;50.728;7.108;2023-04-16T13:59:50;21.47;;;13.53;;
5465;SDS011;2755;50.728;7.108;2023-04-16T14:02:16;21.50;;;14.70;;
5465;SDS011;2755;50.728;7.108;2023-04-16T14:04:41;32.07;;;17.07;;
5465;SDS011;2755;50.728;7.108;2023-04-16T14:07:07;26.60;;;15.63;;
5465;SDS011;2755;50.728;7.108;2023-04-16T14:09:32;26.83;;;16.90;;
5465;SDS011;2755;50.728;7.108;2023-04-16T14:11:58;21.43;;;16.10;;
5465;SDS011;2755;50.728;7.108;2023-04-16T14:14:23;28.53;;;17.10;;
5465;SDS011;2755;50.728;7.108;2023-04-16T14:16:50;24.10;;;16.13;;
5465;SDS011;2755;50.728;7.108;2023-04-16T14:19:17;19.50;;;13.60;;
5465;SDS011;2755;50.728;7.108;2023-04-16T14:21:43;21.60;;;14.33;;
5465;SDS011;2755;50.728;7.108;2023-04-16T14:24:08;17.97;;;12.93;;
5465;SDS011;2755;50.728;7.108;2023-04-16T14:26:35;19.60;;;13.03;;
5465;SDS011;2755;50.728;7.108;2023-04-16T14:29:00;17.20;;;12.00;;
5465;SDS011;2755;50.728;7.108;2023-04-16T14:31:26;18.10;;;12.27;;
5465;SDS011;2755;50.728;7.108;2023-04-16T14:33:51;19.17;;;11.90;;
5465;SDS011;2755;50.728;7.108;2023-04-16T14:36:17;15.77;;;10.87;;
5465;SDS011;2755;50.728;7.108;2023-04-16T14:38:43;18.23;;;11.77;;
5465;SDS011;2755;50.728;7.108;2023-04-16T14:41:09;18.60;;;12.00;;
5465;SDS011;2755;50.728;7.108;2023-04-16T14:43:36;23.87;;;14.20;;
5465;SDS011;2755;50.728;7.108;2023-04-16T14:46:03;16.47;;;11.10;;
5465;SDS011;2755;50.728;7.108;2023-04-16T14:48:30;23.57;;;11.50;;
5465;SDS011;2755;50.728;7.108;2023-04-16T14:50:56;14.87;;;11.30;;
5465;SDS011;2755;50.728;7.108;2023-04-16T14:53:22;16.80;;;10.50;;
5465;SDS011;2755;50.728;7.108;2023-04-16T14:55:48;18.73;;;10.80;;
5465;SDS011;2755;50.728;7.108;2023-04-16T14:58:15;15.37;;;10.70;;
5465;SDS011;2755;50.728;7.108;2023-04-16T15:00:41;18.30;;;10.87;;